Time;durP1;ratioP1;P1;durP2;ratioP2;P2;SDS_P1;SDS_P2;PMS_P1;PMS_P2;Temp;Humidity;BMP_temperature;BMP_pressure;BME280_temperature;BME280_humidity;BME280_pressure;Samples;Min_cycle;Max_cycle;Signal;HPM_P1;HPM_P2
2021/11/03 00:05:09;;;;;;;59.87;55.47;;;;;;;4.42;100.00;100260.22;1890155;74;85840;-67
2021/11/03 00:10:35;;;;;;;59.87;55.37;;;;;;;4.31;100.00;100261.21;1914587;74;39600;-68
2021/11/03 00:16:19;;;;;;;58.67;54.13;;;;;;;4.32;100.00;100270.30;1816088;78;86831;-68
2021/11/03 00:21:44;;;;;;;59.47;55.17;;;;;;;4.24;100.00;100257.81;1891250;74;39671;-68
2021/11/03 00:27:10;;;;;;;54.93;50.67;;;;;;;4.31;100.00;100257.09;1904023;74;86109;-67
2021/11/03 00:32:34;;;;;;;53.27;48.77;;;;;;;4.34;100.00;100250.23;1915011;74;39430;-67
2021/11/03 00:37:58;;;;;;;59.10;54.63;;;;;;;4.33;100.00;100253.52;1891214;74;86484;-67
2021/11/03 00:43:25;;;;;;;55.47;51.47;;;;;;;4.35;100.00;100258.77;1874914;74;39415;-67
2021/11/03 00:48:51;;;;;;;54.63;50.33;;;;;;;4.22;100.00;100265.50;1902187;75;86325;-67
2021/11/03 00:54:16;;;;;;;59.50;55.00;;;;;;;4.15;100.00;100262.11;1918752;74;39607;-67
2021/11/03 00:59:41;;;;;;;56.03;51.43;;;;;;;4.20;100.00;100262.17;1913676;74;39604;-68
2021/11/03 01:05:09;;;;;;;54.70;50.37;;;;;;;4.12;100.00;100257.13;1825520;78;86011;-68
2021/11/03 01:10:38;;;;;;;55.83;51.17;;;;;;;4.07;100.00;100263.94;1915214;74;39423;-68
2021/11/03 01:16:03;;;;;;;55.17;50.80;;;;;;;4.01;100.00;100261.70;1947953;71;85530;-70
2021/11/03 01:21:28;;;;;;;53.37;48.93;;;;;;;3.96;100.00;100263.55;1881156;74;39637;-67
2021/11/03 01:26:52;;;;;;;54.57;49.83;;;;;;;3.87;100.00;100267.28;1902126;75;85379;-67
2021/11/03 01:32:16;;;;;;;54.50;49.70;;;;;;;3.74;100.00;100259.95;1918703;74;39486;-67
2021/11/03 01:37:41;;;;;;;53.27;48.80;;;;;;;3.70;100.00;100264.30;1881143;74;39636;-67
2021/11/03 01:43:10;;;;;;;52.77;48.47;;;;;;;3.58;100.00;100272.13;1902333;74;86857;-68
2021/11/03 01:48:34;;;;;;;51.97;47.60;;;;;;;3.54;100.00;100275.09;1915034;74;39566;-67
2021/11/03 01:54:01;;;;;;;52.40;48.20;;;;;;;3.61;100.00;100274.35;1904946;74;86511;-68
2021/11/03 01:59:30;;;;;;;52.77;48.10;;;;;;;3.71;100.00;100272.83;1887170;74;39618;-67
2021/11/03 02:04:56;;;;;;;52.93;48.37;;;;;;;3.70;100.00;100273.91;1904076;74;86578;-68
2021/11/03 02:10:22;;;;;;;52.13;47.73;;;;;;;3.47;100.00;100279.91;1917224;73;39773;-67
2021/11/03 02:15:51;;;;;;;52.53;48.33;;;;;;;3.56;100.00;100282.52;1901988;75;86137;-68
2021/11/03 02:21:19;;;;;;;53.63;49.63;;;;;;;3.51;100.00;100289.84;1918604;74;39501;-68
2021/11/03 02:26:47;;;;;;;52.10;47.87;;;;;;;3.48;100.00;100298.05;1913132;74;39453;-67
2021/11/03 02:32:18;;;;;;;53.13;48.80;;;;;;;3.39;100.00;100301.47;1919260;74;40124;-68
2021/11/03 02:37:48;;;;;;;52.33;48.00;;;;;;;3.39;100.00;100295.44;1913268;74;40529;-68
2021/11/03 02:43:36;;;;;;;50.73;46.70;;;;;;;3.33;100.00;100299.21;1915540;74;39705;-68
2021/11/03 02:49:00;;;;;;;51.33;47.30;;;;;;;3.11;100.00;100298.30;1890467;74;86035;-68
2021/11/03 02:54:30;;;;;;;51.97;47.77;;;;;;;3.21;100.00;100303.39;1916011;74;39672;-68
2021/11/03 02:59:54;;;;;;;53.20;48.90;;;;;;;3.14;100.00;100309.61;1905516;74;86476;-66
2021/11/03 03:05:19;;;;;;;53.83;49.30;;;;;;;3.04;100.00;100307.22;1918336;74;39535;-67
2021/11/03 03:10:46;;;;;;;56.10;51.10;;;;;;;3.03;100.00;100308.33;1902003;75;86374;-67
2021/11/03 03:16:10;;;;;;;56.57;51.67;;;;;;;3.06;100.00;100310.56;1954629;70;86473;-67
2021/11/03 03:21:36;;;;;;;57.13;52.03;;;;;;;2.86;100.00;100309.69;1914234;74;39660;-67
2021/11/03 03:26:59;;;;;;;57.47;52.77;;;;;;;2.73;100.00;100313.58;1903344;74;86653;-67
2021/11/03 03:32:24;;;;;;;59.20;54.13;;;;;;;2.90;100.00;100316.88;1889872;74;39577;-67
2021/11/03 03:37:50;;;;;;;55.53;50.90;;;;;;;3.06;100.00;100310.03;1901905;75;86477;-68
2021/11/03 03:43:21;;;;;;;56.93;51.97;;;;;;;2.96;100.00;100328.21;1917226;74;39541;-67
2021/11/03 03:48:45;;;;;;;57.80;52.40;;;;;;;2.80;100.00;100327.66;1872271;75;86537;-68
2021/11/03 03:54:10;;;;;;;55.93;50.77;;;;;;;2.71;100.00;100333.55;1902112;74;86298;-67
2021/11/03 03:59:35;;;;;;;57.77;52.60;;;;;;;2.84;100.00;100328.83;1914828;74;39598;-67
2021/11/03 04:05:00;;;;;;;54.17;49.40;;;;;;;2.53;100.00;100337.86;1890423;74;86850;-67
2021/11/03 04:10:44;;;;;;;56.50;51.63;;;;;;;2.39;100.00;100341.99;1983546;71;39396;-68
2021/11/03 04:16:09;;;;;;;52.97;48.47;;;;;;;2.56;100.00;100342.88;1863519;76;85422;-68
2021/11/03 04:21:34;;;;;;;53.30;48.83;;;;;;;2.44;100.00;100348.11;1891720;74;39571;-67
2021/11/03 04:26:57;;;;;;;53.33;48.93;;;;;;;2.35;100.00;100344.09;1891169;74;86395;-67
2021/11/03 04:32:22;;;;;;;51.40;47.17;;;;;;;2.42;100.00;100352.99;1917195;74;39612;-67
2021/11/03 04:37:47;;;;;;;51.97;47.53;;;;;;;2.44;100.00;100356.34;1902068;73;86202;-67
2021/11/03 04:43:13;;;;;;;53.07;48.40;;;;;;;2.50;100.00;100347.12;1919553;74;39431;-68
2021/11/03 04:48:37;;;;;;;52.33;48.03;;;;;;;2.42;100.00;100349.72;1914181;74;39396;-67
2021/11/03 04:54:02;;;;;;;51.33;47.03;;;;;;;2.49;100.00;100355.87;1825417;78;86647;-68
2021/11/03 04:59:34;;;;;;;50.47;46.47;;;;;;;2.36;100.00;100359.44;1914747;74;39475;-68
2021/11/03 05:04:59;;;;;;;51.57;47.43;;;;;;;2.42;100.00;100367.53;1903406;74;86782;-67
2021/11/03 05:10:24;;;;;;;50.73;46.63;;;;;;;2.41;100.00;100375.45;1916965;74;39538;-67
2021/11/03 05:15:49;;;;;;;51.23;46.70;;;;;;;2.23;100.00;100385.20;1901897;75;86664;-66
2021/11/03 05:21:13;;;;;;;51.07;46.97;;;;;;;2.29;100.00;100389.20;1919287;74;39664;-68
2021/11/03 05:26:36;;;;;;;50.90;46.67;;;;;;;2.31;100.00;100394.41;1914626;74;39851;-67
2021/11/03 05:32:00;;;;;;;50.33;46.17;;;;;;;2.52;100.00;100385.56;1904684;74;86447;-67
2021/11/03 05:37:26;;;;;;;50.70;46.27;;;;;;;2.69;100.00;100386.45;1916637;74;39649;-67
2021/11/03 05:42:50;;;;;;;51.23;46.67;;;;;;;2.67;100.00;100387.75;1901977;75;86451;-68
2021/11/03 05:48:17;;;;;;;52.47;47.50;;;;;;;2.65;100.00;100390.73;1885189;74;39701;-67
2021/11/03 05:53:41;;;;;;;52.40;47.70;;;;;;;2.68;100.00;100388.05;1867491;74;39503;-67
2021/11/03 05:59:08;;;;;;;51.63;46.77;;;;;;;2.66;100.00;100395.14;1887445;74;86840;-67
2021/11/03 06:04:32;;;;;;;49.37;45.07;;;;;;;2.67;100.00;100393.23;1915206;74;39537;-67
2021/11/03 06:10:16;;;;;;;50.03;45.93;;;;;;;2.59;100.00;100405.42;1904042;74;86422;-68
2021/11/03 06:15:40;;;;;;;50.97;46.57;;;;;;;2.61;100.00;100412.86;1913822;74;39579;-67
2021/11/03 06:21:04;;;;;;;52.57;47.97;;;;;;;2.65;100.00;100410.48;1951574;71;86557;-67
2021/11/03 06:26:28;;;;;;;51.67;47.07;;;;;;;2.68;100.00;100416.84;1869030;74;39507;-67
2021/11/03 06:31:53;;;;;;;51.70;47.60;;;;;;;2.59;100.00;100421.05;1931209;72;86773;-68
2021/11/03 06:37:17;;;;;;;54.13;48.97;;;;;;;2.65;100.00;100428.30;1918697;74;39610;-68
2021/11/03 06:42:41;;;;;;;53.07;48.50;;;;;;;2.61;100.00;100428.50;1913474;73;39501;-67
2021/11/03 06:48:07;;;;;;;53.67;48.60;;;;;;;2.61;100.00;100439.47;1902489;74;86518;-67
2021/11/03 06:53:33;;;;;;;54.30;49.63;;;;;;;2.61;100.00;100446.33;1871921;74;39508;-68
2021/11/03 06:58:58;;;;;;;54.43;49.53;;;;;;;2.55;100.00;100441.80;1903766;74;85748;-67
2021/11/03 07:04:28;;;;;;;53.67;48.77;;;;;;;2.62;100.00;100448.80;1889056;74;39602;-67
2021/11/03 07:09:51;;;;;;;53.83;49.03;;;;;;;2.60;100.00;100449.59;1901838;75;86519;-67
2021/11/03 07:15:15;;;;;;;54.93;50.03;;;;;;;2.77;100.00;100452.94;1892591;74;39721;-67
2021/11/03 07:20:43;;;;;;;52.73;48.37;;;;;;;2.70;100.00;100455.80;1913756;74;39604;-67
2021/11/03 07:26:07;;;;;;;55.23;50.27;;;;;;;2.89;100.00;100465.53;1954776;70;86406;-68
2021/11/03 07:31:31;;;;;;;56.83;51.73;;;;;;;2.90;100.00;100469.11;1915422;74;39418;-67
2021/11/03 07:36:56;;;;;;;54.33;49.63;;;;;;;2.77;100.00;100468.86;1907448;74;86318;-67
2021/11/03 07:42:20;;;;;;;54.50;49.80;;;;;;;3.29;100.00;100482.48;1917395;74;39757;-67
2021/11/03 07:47:47;;;;;;;55.17;50.07;;;;;;;3.10;100.00;100483.21;1870468;76;86247;-68
2021/11/03 07:53:21;;;;;;;55.03;50.43;;;;;;;3.19;100.00;100499.58;1918325;74;39409;-67
2021/11/03 07:58:50;;;;;;;54.70;49.73;;;;;;;3.19;100.00;100507.81;1902015;73;86341;-67
2021/11/03 08:04:14;;;;;;;54.77;49.87;;;;;;;4.31;100.00;100507.27;1919171;74;39473;-70
2021/11/03 08:09:44;;;;;;;58.23;53.00;;;;;;;4.59;100.00;100509.02;1913982;74;39531;-71
2021/11/03 08:15:08;;;;;;;57.33;52.07;;;;;;;4.81;100.00;100520.04;1890154;74;86870;-70
2021/11/03 08:20:35;;;;;;;56.27;51.17;;;;;;;4.84;100.00;100510.73;1914952;74;39425;-67
2021/11/03 08:25:58;;;;;;;56.53;51.40;;;;;;;4.88;100.00;100512.41;1903588;74;85677;-67
2021/11/03 08:31:23;;;;;;;60.87;55.03;;;;;;;5.04;100.00;100521.17;1916980;73;39511;-68
2021/11/03 08:36:47;;;;;;;58.20;52.60;;;;;;;5.19;100.00;100524.63;1901906;73;86259;-69
2021/11/03 08:42:12;;;;;;;55.87;50.57;;;;;;;5.44;100.00;100531.25;1886765;74;86025;-68
2021/11/03 08:47:43;;;;;;;56.33;51.13;;;;;;;5.69;100.00;100530.67;1880133;74;39520;-67
2021/11/03 08:53:11;;;;;;;57.40;51.97;;;;;;;5.92;100.00;100535.06;1751842;80;86692;-67
2021/11/03 08:58:35;;;;;;;59.10;53.70;;;;;;;6.07;100.00;100544.86;1914745;74;39500;-68
2021/11/03 09:04:19;;;;;;;59.30;53.97;;;;;;;6.32;100.00;100536.78;1828376;77;86475;-68
2021/11/03 09:09:46;;;;;;;58.83;53.13;;;;;;;6.43;100.00;100546.48;1884769;74;39653;-68
2021/11/03 09:15:11;;;;;;;57.73;52.33;;;;;;;6.57;100.00;100543.55;1906382;74;85350;-68
2021/11/03 09:20:36;;;;;;;60.43;54.63;;;;;;;6.78;100.00;100548.09;1914434;74;39445;-68
2021/11/03 09:26:00;;;;;;;57.77;52.37;;;;;;;6.89;100.00;100563.60;1904716;74;86723;-68
2021/11/03 09:31:26;;;;;;;59.80;54.37;;;;;;;6.93;100.00;100570.25;1887933;74;39541;-67
2021/11/03 09:36:53;;;;;;;58.90;53.70;;;;;;;7.04;100.00;100569.77;1902104;74;85932;-68
2021/11/03 09:42:19;;;;;;;58.93;53.50;;;;;;;7.19;100.00;100566.51;1918497;74;39605;-68
2021/11/03 09:47:58;;;;;;;61.87;56.07;;;;;;;7.36;100.00;100562.73;1872271;74;86121;-67
2021/11/03 09:53:27;;;;;;;61.77;56.17;;;;;;;7.44;100.00;100560.82;1916826;73;39476;-69
2021/11/03 09:59:06;;;;;;;61.33;55.80;;;;;;;7.44;100.00;100564.97;1901996;73;86283;-67
2021/11/03 10:05:05;;;;;;;59.10;53.60;;;;;;;7.79;100.00;100567.80;1914409;74;39571;-67
2021/11/03 10:07:41;;;;;;;59.00;53.67;;;;;;;7.80;100.00;100570.84;1851472;75;936797;-68
2021/11/03 10:13:18;;;;;;;59.07;53.67;;;;;;;7.94;100.00;100569.77;1919386;74;39626;-68
2021/11/03 10:21:49;;;;;;;60.33;54.57;;;;;;;8.06;100.00;100568.94;1916805;74;86100;-68
2021/11/03 10:27:23;;;;;;;61.53;56.13;;;;;;;8.20;100.00;100573.67;1917214;74;39587;-68
2021/11/03 10:32:50;;;;;;;59.57;54.20;;;;;;;8.41;100.00;100574.52;1901356;73;86182;-68
2021/11/03 10:38:21;;;;;;;58.23;52.97;;;;;;;8.63;100.00;100574.22;1904109;74;86317;-67
2021/11/03 10:40:55;;;;;;;58.75;53.48;;;;;;;8.55;100.00;100582.55;1818362;76;936618;-68
2021/11/03 10:46:26;;;;;;;57.70;52.40;;;;;;;8.84;100.00;100577.23;1891016;74;86122;-68
2021/11/03 10:49:31;;;;;;;60.03;54.63;;;;;;;8.91;100.00;100588.00;1817363;76;936829;-69
2021/11/03 10:58:06;;;;;;;56.13;51.23;;;;;;;9.17;100.00;100576.29;1996016;69;39595;-69
2021/11/03 11:00:38;;;;;;;54.57;49.70;;;;;;;9.34;100.00;100583.70;1936284;73;934826;-67
2021/11/03 11:06:14;;;;;;;53.70;49.30;;;;;;;9.83;100.00;100579.03;1913308;74;39577;-68
2021/11/03 11:11:53;;;;;;;50.37;45.97;;;;;;;10.04;100.00;100576.94;1890920;74;39735;-67
2021/11/03 11:17:24;;;;;;;55.40;50.80;;;;;;;9.90;100.00;100575.36;1907266;74;86527;-69
2021/11/03 11:23:19;;;;;;;50.47;46.57;;;;;;;9.69;100.00;100577.16;1878649;76;86949;-68
2021/11/03 11:28:46;;;;;;;51.83;47.83;;;;;;;9.76;100.00;100571.56;1918262;74;39823;-68
2021/11/03 11:31:21;;;;;;;50.60;46.57;;;;;;;9.76;100.00;100582.66;1863912;75;936731;-69
2021/11/03 11:33:55;;;;;;;51.58;47.62;;;;;;;9.77;100.00;100577.39;1851725;76;939059;-68
2021/11/03 11:36:31;;;;;;;48.37;44.63;;;;;;;9.78;100.00;100583.22;1863838;75;938922;-67
2021/11/03 11:39:12;;;;;;;48.90;45.38;;;;;;;9.86;100.00;100583.99;1851654;76;938897;-67
2021/11/03 11:41:49;;;;;;;48.37;44.87;;;;;;;9.99;100.00;100584.74;1863769;76;937087;-67
2021/11/03 11:44:22;;;;;;;48.20;44.60;;;;;;;10.12;100.00;100590.20;1863976;76;938869;-69
2021/11/03 11:49:50;;;;;;;48.63;45.30;;;;;;;10.22;100.00;100578.23;1889928;74;39835;-67
2021/11/03 11:55:26;;;;;;;49.00;45.50;;;;;;;10.26;100.00;100564.88;1901975;75;86234;-68
2021/11/03 12:01:35;;;;;;;49.10;45.37;;;;;;;10.41;100.00;100560.56;1785108;79;86631;-69
2021/11/03 12:04:40;;;;;;;50.50;47.00;;;;;;;10.40;100.00;100574.73;1732946;81;938914;-69
2021/11/03 12:10:32;;;;;;;48.23;44.83;;;;;;;10.50;100.00;100564.93;1891962;74;86488;-67
2021/11/03 12:16:31;;;;;;;50.70;47.00;;;;;;;10.70;100.00;100563.34;1903728;74;86296;-69
2021/11/03 12:22:02;;;;;;;51.90;48.20;;;;;;;10.57;100.00;100567.39;1914014;73;39552;-68
2021/11/03 12:27:34;;;;;;;52.97;49.07;;;;;;;10.46;100.00;100576.36;1777500;79;86423;-67
2021/11/03 12:33:22;;;;;;;54.60;50.60;;;;;;;10.56;100.00;100577.66;1890850;74;86593;-69
2021/11/03 12:39:05;;;;;;;48.70;45.13;;;;;;;10.71;100.00;100573.34;1913933;74;39442;-67
2021/11/03 12:44:41;;;;;;;49.53;45.93;;;;;;;10.56;100.00;100580.44;1876055;74;39776;-67
2021/11/03 12:50:13;;;;;;;54.30;50.50;;;;;;;10.23;100.00;100584.03;1872205;75;86757;-69
2021/11/03 12:55:47;;;;;;;47.40;44.10;;;;;;;10.59;100.00;100580.41;1919074;74;39645;-67
2021/11/03 13:01:29;;;;;;;48.57;45.40;;;;;;;11.01;100.00;100572.19;1780271;79;86921;-67
2021/11/03 13:06:57;;;;;;;53.00;49.13;;;;;;;10.78;100.00;100573.81;1915402;74;39703;-67
2021/11/03 13:12:30;;;;;;;52.30;48.80;;;;;;;10.49;100.00;100571.05;1954806;70;86273;-68
2021/11/03 13:20:47;;;;;;;52.20;48.60;;;;;;;10.52;100.00;100566.88;2002870;69;39474;-68
2021/11/03 13:26:15;;;;;;;51.67;48.07;;;;;;;10.46;100.00;100570.25;1902005;74;86238;-69
2021/11/03 13:31:43;;;;;;;54.37;50.60;;;;;;;10.38;100.00;100559.77;1892241;74;39671;-69
2021/11/03 13:37:23;;;;;;;53.20;49.50;;;;;;;10.19;100.00;100571.30;1901950;75;86196;-67
2021/11/03 13:43:13;;;;;;;52.50;48.77;;;;;;;10.34;100.00;100570.36;1888695;74;39654;-67
2021/11/03 13:48:44;;;;;;;49.93;46.50;;;;;;;10.57;100.00;100572.35;1919123;74;39586;-67
2021/11/03 13:54:26;;;;;;;52.00;48.50;;;;;;;10.48;100.00;100572.75;1902086;74;86485;-68
2021/11/03 13:59:58;;;;;;;47.33;44.10;;;;;;;10.50;100.00;100564.38;1915928;74;39667;-67
2021/11/03 14:05:35;;;;;;;47.27;44.27;;;;;;;10.62;100.00;100563.14;1947658;71;86611;-67
2021/11/03 14:11:01;;;;;;;47.73;44.63;;;;;;;10.76;100.00;100555.80;1870174;74;39625;-66
2021/11/03 14:16:28;;;;;;;47.53;44.30;;;;;;;10.64;100.00;100563.14;1785186;79;86518;-69
2021/11/03 14:21:55;;;;;;;50.13;47.13;;;;;;;10.66;100.00;100548.94;1914534;74;39769;-67
2021/11/03 14:27:19;;;;;;;49.83;46.63;;;;;;;10.53;100.00;100564.89;1905479;74;86626;-67
2021/11/03 14:32:46;;;;;;;49.90;46.60;;;;;;;10.48;100.00;100567.98;1890994;74;39712;-68
2021/11/03 14:41:02;;;;;;;49.63;46.43;;;;;;;10.43;100.00;100573.61;1995539;69;39748;-68
2021/11/03 14:43:32;;;;;;;49.53;46.23;;;;;;;10.35;100.00;100581.73;1936113;73;936844;-67
2021/11/03 14:46:05;;;;;;;48.90;45.70;;;;;;;10.36;100.00;100578.65;1883033;73;940856;-69
2021/11/03 14:51:30;;;;;;;49.37;46.27;;;;;;;10.39;100.00;100579.48;1943362;71;86311;-69
2021/11/03 14:57:13;;;;;;;50.13;46.77;;;;;;;10.35;100.00;100585.34;1881017;74;86363;-69
2021/11/03 15:02:42;;;;;;;53.87;49.97;;;;;;;10.19;100.00;100599.61;1918994;74;39510;-69
2021/11/03 15:11:01;;;;;;;53.20;49.20;;;;;;;9.89;100.00;100603.38;1996448;69;39644;-69
2021/11/03 15:13:31;;;;;;;52.00;48.23;;;;;;;9.79;100.00;100611.78;1936358;73;934913;-69
2021/11/03 15:16:04;;;;;;;51.40;47.83;;;;;;;9.82;100.00;100622.30;1923520;73;938804;-69
2021/11/03 15:24:18;;;;;;;49.20;45.70;;;;;;;9.88;100.00;100635.04;1832193;77;85962;-71
2021/11/03 15:26:49;;;;;;;48.48;44.88;;;;;;;9.80;100.00;100652.25;1774248;78;936871;-67
2021/11/03 15:29:26;;;;;;;48.30;44.90;;;;;;;9.80;100.00;100656.41;1781758;79;938970;-68
2021/11/03 15:31:52;;;;;;;46.77;43.27;;;;;;;9.72;100.00;100662.00;1781063;78;938765;-68
2021/11/03 15:34:25;;;;;;;47.33;43.93;;;;;;;9.67;100.00;100666.77;1779526;78;938780;-68
2021/11/03 15:36:57;;;;;;;48.52;45.03;;;;;;;9.67;100.00;100665.38;1767926;79;939071;-68
2021/11/03 15:42:24;;;;;;;47.03;43.63;;;;;;;9.83;100.00;100662.80;1903574;74;86541;-68
2021/11/03 15:47:51;;;;;;;47.17;43.67;;;;;;;9.71;100.00;100677.01;1916233;74;39521;-69
2021/11/03 15:53:19;;;;;;;47.27;43.90;;;;;;;9.78;100.00;100684.45;1891443;74;86763;-69
2021/11/03 15:58:45;;;;;;;46.77;43.27;;;;;;;9.73;100.00;100685.86;1916975;73;39522;-69
2021/11/03 16:04:16;;;;;;;45.40;42.10;;;;;;;9.79;100.00;100692.22;1901917;74;86497;-69
2021/11/03 16:09:40;;;;;;;44.83;41.53;;;;;;;9.75;100.00;100700.84;1902069;73;86222;-67
2021/11/03 16:15:07;;;;;;;46.07;42.67;;;;;;;9.67;100.00;100705.01;1918724;74;39692;-67
2021/11/03 16:20:31;;;;;;;47.93;44.43;;;;;;;9.74;100.00;100712.48;1913454;74;39606;-67
2021/11/03 16:25:57;;;;;;;46.70;43.30;;;;;;;9.64;100.00;100722.77;1825382;77;86338;-68
2021/11/03 16:31:23;;;;;;;46.20;42.90;;;;;;;9.55;100.00;100723.91;1915172;74;39670;-69
2021/11/03 16:36:48;;;;;;;46.60;43.23;;;;;;;9.53;100.00;100736.69;1903744;74;86213;-71
2021/11/03 16:42:30;;;;;;;45.13;41.83;;;;;;;9.56;100.00;100740.83;1916627;74;39700;-70
2021/11/03 16:48:00;;;;;;;46.83;43.43;;;;;;;9.57;100.00;100750.81;1874463;74;86905;-68
2021/11/03 16:53:48;;;;;;;45.63;42.13;;;;;;;9.69;100.00;100758.27;1917033;73;86684;-67
2021/11/03 16:59:15;;;;;;;49.03;45.27;;;;;;;9.65;100.00;100764.10;1871256;74;39626;-68
2021/11/03 17:04:41;;;;;;;46.27;42.77;;;;;;;9.68;100.00;100766.85;1901943;74;86734;-68
2021/11/03 17:10:12;;;;;;;49.50;45.70;;;;;;;9.69;100.00;100767.14;1918139;74;39583;-67
2021/11/03 17:15:37;;;;;;;49.17;45.47;;;;;;;9.71;100.00;100771.31;1901900;75;86411;-68
2021/11/03 17:21:02;;;;;;;50.70;46.87;;;;;;;9.66;100.00;100774.09;1919204;74;39716;-69
2021/11/03 17:26:29;;;;;;;52.67;49.07;;;;;;;9.68;100.00;100780.17;1914463;74;40641;-68
2021/11/03 17:31:55;;;;;;;49.50;45.80;;;;;;;9.71;100.00;100791.28;1760814;80;86527;-68
2021/11/03 17:37:21;;;;;;;53.17;49.37;;;;;;;9.72;100.00;100797.08;1915491;74;39502;-68
2021/11/03 17:42:48;;;;;;;50.23;46.43;;;;;;;9.64;100.00;100803.20;1903688;74;86943;-68
2021/11/03 17:48:18;;;;;;;50.03;46.23;;;;;;;9.67;100.00;100806.23;1888746;74;39412;-68
2021/11/03 17:53:44;;;;;;;51.13;47.13;;;;;;;9.73;100.00;100810.67;1904186;74;86414;-68
2021/11/03 17:59:18;;;;;;;53.47;49.27;;;;;;;9.76;100.00;100811.48;1889511;74;39686;-68
2021/11/03 18:04:45;;;;;;;53.53;49.53;;;;;;;9.77;100.00;100817.88;1869586;72;85878;-75
2021/11/03 18:10:10;;;;;;;57.40;53.23;;;;;;;9.80;100.00;100828.40;1917351;74;39491;-75
2021/11/03 18:15:36;;;;;;;57.53;53.47;;;;;;;9.81;100.00;100832.84;1901980;73;86513;-75
2021/11/03 18:21:03;;;;;;;55.87;51.83;;;;;;;9.79;100.00;100840.08;1901861;74;86600;-74
2021/11/03 18:26:29;;;;;;;56.13;52.03;;;;;;;9.84;100.00;100856.69;1914297;74;39471;-76
2021/11/03 18:32:02;;;;;;;55.00;50.90;;;;;;;9.86;100.00;100862.80;1785205;79;85742;-73
2021/11/03 18:37:27;;;;;;;55.53;51.43;;;;;;;9.84;100.00;100869.75;1914171;74;39758;-77
2021/11/03 18:42:54;;;;;;;52.17;48.17;;;;;;;9.84;100.00;100875.30;1751963;80;86345;-77
2021/11/03 18:48:24;;;;;;;55.43;51.27;;;;;;;9.80;100.00;100882.49;1888221;74;39730;-74
2021/11/03 18:53:52;;;;;;;53.67;49.77;;;;;;;9.79;100.00;100890.01;1890312;74;86685;-76
2021/11/03 18:59:16;;;;;;;57.57;53.67;;;;;;;9.66;100.00;100898.05;1879859;74;39581;-77
2021/11/03 19:04:41;;;;;;;55.00;51.00;;;;;;;9.51;100.00;100900.27;1902054;73;85965;-73
2021/11/03 19:10:09;;;;;;;51.00;47.30;;;;;;;9.42;100.00;100907.46;1918268;74;39700;-76
2021/11/03 19:15:38;;;;;;;50.20;46.40;;;;;;;9.41;100.00;100909.98;1901967;75;85532;-75
2021/11/03 19:21:05;;;;;;;49.10;45.30;;;;;;;9.46;100.00;100913.57;1919143;74;39741;-75
2021/11/03 19:26:32;;;;;;;49.53;45.83;;;;;;;9.28;100.00;100924.38;1885466;74;39639;-73
2021/11/03 19:31:55;;;;;;;47.83;44.23;;;;;;;9.16;100.00;100929.35;1889941;74;86371;-76
2021/11/03 19:37:25;;;;;;;47.77;44.27;;;;;;;9.32;100.00;100933.81;1915252;74;39533;-73
2021/11/03 19:42:54;;;;;;;49.27;45.77;;;;;;;9.32;100.00;100936.58;1890736;74;85496;-74
2021/11/03 19:48:22;;;;;;;48.80;45.30;;;;;;;9.22;100.00;100947.63;1915271;74;39532;-72
2021/11/03 19:53:49;;;;;;;49.40;45.60;;;;;;;9.36;100.00;100949.62;1891120;74;86671;-72
2021/11/03 19:59:18;;;;;;;51.80;48.00;;;;;;;9.22;100.00;100962.87;1916055;74;39643;-74
2021/11/03 20:05:03;;;;;;;51.60;47.90;;;;;;;9.24;100.00;100968.42;1809962;78;86229;-72
2021/11/03 20:10:33;;;;;;;51.43;47.83;;;;;;;9.25;100.00;100970.64;1913645;74;39473;-76
2021/11/03 20:16:01;;;;;;;48.33;44.83;;;;;;;9.03;100.00;100973.08;1877251;75;85573;-70
2021/11/03 20:18:35;;;;;;;50.77;46.93;;;;;;;9.06;100.00;100988.34;1772782;77;936622;-72
2021/11/03 20:24:00;;;;;;;48.87;45.07;;;;;;;9.27;100.00;100985.91;1946421;71;86407;-75
2021/11/03 20:29:28;;;;;;;48.23;44.63;;;;;;;9.32;100.00;100992.86;1869935;74;39583;-72
2021/11/03 20:34:55;;;;;;;48.97;45.30;;;;;;;9.30;100.00;100996.44;1782750;79;86265;-74
2021/11/03 20:40:23;;;;;;;50.63;47.10;;;;;;;9.41;100.00;100996.73;1872092;74;39453;-71
2021/11/03 20:42:57;;;;;;;48.67;45.17;;;;;;;9.39;100.00;101000.34;1826466;77;936708;-73
2021/11/03 20:48:22;;;;;;;46.90;43.70;;;;;;;9.49;100.00;100996.22;1914865;74;39488;-74
2021/11/03 20:53:48;;;;;;;45.50;42.10;;;;;;;9.41;100.00;101000.89;1903531;74;86310;-72
2021/11/03 20:59:13;;;;;;;46.83;43.40;;;;;;;9.41;100.00;101007.82;1916565;74;40065;-72
2021/11/03 21:04:38;;;;;;;48.37;44.87;;;;;;;9.46;100.00;101007.84;1901751;75;86395;-72
2021/11/03 21:10:02;;;;;;;48.33;44.90;;;;;;;9.44;100.00;101017.55;1919316;74;39437;-73
2021/11/03 21:15:27;;;;;;;48.60;45.13;;;;;;;9.43;100.00;101013.94;1914254;74;39729;-72
2021/11/03 21:23:41;;;;;;;49.43;46.03;;;;;;;9.12;100.00;101010.23;1921598;74;86078;-72
2021/11/03 21:29:08;;;;;;;49.03;45.53;;;;;;;8.94;100.00;101016.83;1918491;74;39809;-74
2021/11/03 21:34:32;;;;;;;48.07;44.57;;;;;;;8.83;100.00;101021.48;1913054;74;40297;-72
2021/11/03 21:39:58;;;;;;;47.90;44.30;;;;;;;8.85;100.00;101028.98;1902391;74;86789;-70
2021/11/03 21:45:24;;;;;;;49.50;45.87;;;;;;;8.80;100.00;101033.11;1914987;74;39550;-71
2021/11/03 21:50:49;;;;;;;48.83;45.03;;;;;;;8.66;100.00;101038.83;1890642;74;86263;-72
2021/11/03 21:56:14;;;;;;;46.57;43.00;;;;;;;8.69;100.00;101036.90;1916293;73;39605;-73
2021/11/03 22:01:38;;;;;;;46.67;43.10;;;;;;;8.76;100.00;101040.83;1901827;73;86454;-73
2021/11/03 22:07:02;;;;;;;46.23;42.83;;;;;;;8.84;100.00;101034.78;1919154;74;40247;-72
2021/11/03 22:12:27;;;;;;;48.30;44.60;;;;;;;8.92;100.00;101051.72;1914354;74;39662;-73
2021/11/03 22:17:51;;;;;;;46.07;42.77;;;;;;;8.96;100.00;101045.92;1825355;76;86287;-72
2021/11/03 22:23:16;;;;;;;47.60;43.90;;;;;;;8.98;100.00;101049.81;1912596;74;39776;-74
2021/11/03 22:28:39;;;;;;;47.40;44.00;;;;;;;8.88;100.00;101055.30;1901867;73;86470;-72
2021/11/03 22:34:05;;;;;;;48.50;44.83;;;;;;;8.74;100.00;101061.86;1918865;74;39882;-75
2021/11/03 22:39:30;;;;;;;49.20;45.60;;;;;;;8.59;100.00;101067.31;1913711;74;39455;-69
2021/11/03 22:44:55;;;;;;;51.77;47.93;;;;;;;8.60;100.00;101071.77;1947205;71;86159;-74
2021/11/03 22:50:22;;;;;;;51.47;47.73;;;;;;;8.48;100.00;101078.02;1915456;74;39612;-70
2021/11/03 22:55:47;;;;;;;48.83;45.43;;;;;;;8.55;100.00;101081.41;1903688;74;86061;-69
2021/11/03 23:01:11;;;;;;;51.77;48.07;;;;;;;8.68;100.00;101086.48;1916915;74;39769;-70
2021/11/03 23:06:36;;;;;;;47.30;43.83;;;;;;;8.60;100.00;101088.37;1901810;75;86492;-69
2021/11/03 23:12:00;;;;;;;51.13;47.63;;;;;;;8.73;100.00;101090.65;1889432;74;86356;-72
2021/11/03 23:17:24;;;;;;;51.27;47.50;;;;;;;8.72;100.00;101093.70;1914544;74;39592;-71
2021/11/03 23:22:50;;;;;;;49.60;46.10;;;;;;;8.53;100.00;101095.51;1907780;74;86960;-72
2021/11/03 23:28:14;;;;;;;47.13;43.60;;;;;;;8.47;100.00;101097.14;1880970;74;39567;-71
2021/11/03 23:33:39;;;;;;;50.50;46.80;;;;;;;8.73;100.00;101104.49;1901897;75;86396;-72
2021/11/03 23:39:05;;;;;;;48.30;44.70;;;;;;;8.54;100.00;101096.34;1918956;74;39427;-73
2021/11/03 23:44:29;;;;;;;50.70;46.90;;;;;;;8.43;100.00;101100.95;1913739;74;39681;-72
2021/11/03 23:49:53;;;;;;;48.80;45.10;;;;;;;8.33;100.00;101098.67;1954643;70;86251;-71
2021/11/03 23:55:19;;;;;;;47.07;43.63;;;;;;;8.37;100.00;101103.42;1915929;74;39538;-73
